sensor_id;sensor_type;location;lat;lon;timestamp;temperature;humidity
31747;DHT22;18319;48.974;8.462;2023-04-25T00:00:02;8.20;99.90
31747;DHT22;18319;48.974;8.462;2023-04-25T00:02:32;8.20;99.90
31747;DHT22;18319;48.974;8.462;2023-04-25T00:05:00;8.10;99.90
31747;DHT22;18319;48.974;8.462;2023-04-25T00:07:27;8.10;99.90
31747;DHT22;18319;48.974;8.462;2023-04-25T00:09:54;8.00;99.90
31747;DHT22;18319;48.974;8.462;2023-04-25T00:12:20;8.00;99.90
31747;DHT22;18319;48.974;8.462;2023-04-25T00:14:48;7.90;99.90
31747;DHT22;18319;48.974;8.462;2023-04-25T00:17:18;7.90;99.90
31747;DHT22;18319;48.974;8.462;2023-04-25T00:19:44;8.00;99.90
31747;DHT22;18319;48.974;8.462;2023-04-25T00:22:11;8.10;99.90
31747;DHT22;18319;48.974;8.462;2023-04-25T00:24:38;8.20;99.90
31747;DHT22;18319;48.974;8.462;2023-04-25T00:27:05;8.30;99.90
31747;DHT22;18319;48.974;8.462;2023-04-25T00:29:33;8.50;99.90
31747;DHT22;18319;48.974;8.462;2023-04-25T00:32:01;8.60;99.90
31747;DHT22;18319;48.974;8.462;2023-04-25T00:34:29;8.70;99.90
31747;DHT22;18319;48.974;8.462;2023-04-25T00:36:56;8.80;99.90
31747;DHT22;18319;48.974;8.462;2023-04-25T00:39:23;8.90;99.90
31747;DHT22;18319;48.974;8.462;2023-04-25T00:41:50;9.00;99.90
31747;DHT22;18319;48.974;8.462;2023-04-25T00:44:20;9.00;99.90
31747;DHT22;18319;48.974;8.462;2023-04-25T00:46:47;9.10;99.90
31747;DHT22;18319;48.974;8.462;2023-04-25T00:49:14;9.20;99.90
31747;DHT22;18319;48.974;8.462;2023-04-25T00:51:43;9.20;99.90
31747;DHT22;18319;48.974;8.462;2023-04-25T00:54:11;9.20;99.90
31747;DHT22;18319;48.974;8.462;2023-04-25T00:56:38;9.20;99.90
31747;DHT22;18319;48.974;8.462;2023-04-25T00:59:05;9.20;99.90
31747;DHT22;18319;48.974;8.462;2023-04-25T01:01:33;9.30;99.90
31747;DHT22;18319;48.974;8.462;2023-04-25T01:04:01;9.30;99.90
31747;DHT22;18319;48.974;8.462;2023-04-25T01:06:28;9.30;99.90
31747;DHT22;18319;48.974;8.462;2023-04-25T01:08:56;9.30;99.90
31747;DHT22;18319;48.974;8.462;2023-04-25T01:11:23;9.40;99.90
31747;DHT22;18319;48.974;8.462;2023-04-25T01:13:50;9.40;99.90
31747;DHT22;18319;48.974;8.462;2023-04-25T01:16:17;9.40;99.90
31747;DHT22;18319;48.974;8.462;2023-04-25T01:18:44;9.40;99.90
31747;DHT22;18319;48.974;8.462;2023-04-25T01:21:13;9.40;99.90
31747;DHT22;18319;48.974;8.462;2023-04-25T01:23:40;9.30;99.90
31747;DHT22;18319;48.974;8.462;2023-04-25T01:26:09;9.30;99.90
31747;DHT22;18319;48.974;8.462;2023-04-25T01:28:36;9.20;99.90
31747;DHT22;18319;48.974;8.462;2023-04-25T01:31:05;9.20;99.90
31747;DHT22;18319;48.974;8.462;2023-04-25T01:33:32;9.20;99.90
31747;DHT22;18319;48.974;8.462;2023-04-25T01:35:59;9.20;99.90
31747;DHT22;18319;48.974;8.462;2023-04-25T01:38:27;9.30;99.90
31747;DHT22;18319;48.974;8.462;2023-04-25T01:40:54;9.30;99.90
31747;DHT22;18319;48.974;8.462;2023-04-25T01:43:21;9.30;99.90
31747;DHT22;18319;48.974;8.462;2023-04-25T01:45:49;9.30;99.90
31747;DHT22;18319;48.974;8.462;2023-04-25T01:48:17;9.20;99.90
31747;DHT22;18319;48.974;8.462;2023-04-25T01:50:44;9.20;99.90
31747;DHT22;18319;48.974;8.462;2023-04-25T01:53:13;9.30;99.90
31747;DHT22;18319;48.974;8.462;2023-04-25T01:55:41;9.20;99.90
31747;DHT22;18319;48.974;8.462;2023-04-25T01:58:08;9.20;99.90
31747;DHT22;18319;48.974;8.462;2023-04-25T02:00:37;9.30;99.90
31747;DHT22;18319;48.974;8.462;2023-04-25T02:03:04;9.30;99.90
31747;DHT22;18319;48.974;8.462;2023-04-25T02:05:35;9.30;99.90
31747;DHT22;18319;48.974;8.462;2023-04-25T02:08:02;9.30;99.90
31747;DHT22;18319;48.974;8.462;2023-04-25T02:10:29;9.30;99.90
31747;DHT22;18319;48.974;8.462;2023-04-25T02:12:58;9.30;99.90
31747;DHT22;18319;48.974;8.462;2023-04-25T02:15:25;9.30;99.90
31747;DHT22;18319;48.974;8.462;2023-04-25T02:17:51;9.30;99.90
31747;DHT22;18319;48.974;8.462;2023-04-25T02:20:19;9.30;99.90
31747;DHT22;18319;48.974;8.462;2023-04-25T02:22:47;9.30;99.90
31747;DHT22;18319;48.974;8.462;2023-04-25T02:25:14;9.30;99.90
31747;DHT22;18319;48.974;8.462;2023-04-25T02:27:41;9.30;99.90
31747;DHT22;18319;48.974;8.462;2023-04-25T02:30:10;9.30;99.90
31747;DHT22;18319;48.974;8.462;2023-04-25T02:32:37;9.30;99.90
31747;DHT22;18319;48.974;8.462;2023-04-25T02:35:05;9.30;99.90
31747;DHT22;18319;48.974;8.462;2023-04-25T02:37:32;9.30;99.90
31747;DHT22;18319;48.974;8.462;2023-04-25T02:40:00;9.30;99.90
31747;DHT22;18319;48.974;8.462;2023-04-25T02:42:28;9.30;99.90
31747;DHT22;18319;48.974;8.462;2023-04-25T02:44:54;9.30;99.90
31747;DHT22;18319;48.974;8.462;2023-04-25T02:47:23;9.30;99.90
31747;DHT22;18319;48.974;8.462;2023-04-25T02:49:49;9.30;99.90
31747;DHT22;18319;48.974;8.462;2023-04-25T02:52:16;9.20;99.90
31747;DHT22;18319;48.974;8.462;2023-04-25T02:54:43;9.20;99.90
31747;DHT22;18319;48.974;8.462;2023-04-25T02:57:10;9.20;99.90
31747;DHT22;18319;48.974;8.462;2023-04-25T02:59:36;9.20;99.90
31747;DHT22;18319;48.974;8.462;2023-04-25T03:02:03;9.10;99.90
31747;DHT22;18319;48.974;8.462;2023-04-25T03:04:31;9.00;99.90
31747;DHT22;18319;48.974;8.462;2023-04-25T03:06:59;9.10;99.90
31747;DHT22;18319;48.974;8.462;2023-04-25T03:09:26;9.00;99.90
31747;DHT22;18319;48.974;8.462;2023-04-25T03:11:53;9.00;99.90
31747;DHT22;18319;48.974;8.462;2023-04-25T03:14:20;8.90;99.90
31747;DHT22;18319;48.974;8.462;2023-04-25T03:16:49;8.90;99.90
31747;DHT22;18319;48.974;8.462;2023-04-25T03:19:16;8.90;99.90
31747;DHT22;18319;48.974;8.462;2023-04-25T03:21:45;8.90;99.90
31747;DHT22;18319;48.974;8.462;2023-04-25T03:24:11;8.80;99.90
31747;DHT22;18319;48.974;8.462;2023-04-25T03:26:38;8.80;99.90
31747;DHT22;18319;48.974;8.462;2023-04-25T03:29:05;8.80;99.90
31747;DHT22;18319;48.974;8.462;2023-04-25T03:31:32;8.80;99.90
31747;DHT22;18319;48.974;8.462;2023-04-25T03:33:58;8.70;99.90
31747;DHT22;18319;48.974;8.462;2023-04-25T03:36:25;8.70;99.90
31747;DHT22;18319;48.974;8.462;2023-04-25T03:38:53;8.70;99.90
31747;DHT22;18319;48.974;8.462;2023-04-25T03:41:20;8.70;99.90
31747;DHT22;18319;48.974;8.462;2023-04-25T03:43:47;8.70;99.90
31747;DHT22;18319;48.974;8.462;2023-04-25T03:46:14;8.60;99.90
31747;DHT22;18319;48.974;8.462;2023-04-25T03:48:40;8.60;99.90
31747;DHT22;18319;48.974;8.462;2023-04-25T03:51:07;8.60;99.90
31747;DHT22;18319;48.974;8.462;2023-04-25T03:53:34;8.60;99.90
31747;DHT22;18319;48.974;8.462;2023-04-25T03:56:02;8.60;99.90
31747;DHT22;18319;48.974;8.462;2023-04-25T03:58:29;8.50;99.90
31747;DHT22;18319;48.974;8.462;2023-04-25T04:00:55;8.50;99.90
31747;DHT22;18319;48.974;8.462;2023-04-25T04:03:22;8.50;99.90
31747;DHT22;18319;48.974;8.462;2023-04-25T04:05:49;8.50;99.90
31747;DHT22;18319;48.974;8.462;2023-04-25T04:08:16;8.60;99.90
31747;DHT22;18319;48.974;8.462;2023-04-25T04:10:42;8.60;99.90
31747;DHT22;18319;48.974;8.462;2023-04-25T04:13:11;8.60;99.90
31747;DHT22;18319;48.974;8.462;2023-04-25T04:15:37;8.60;99.90
31747;DHT22;18319;48.974;8.462;2023-04-25T04:18:04;8.60;99.90
31747;DHT22;18319;48.974;8.462;2023-04-25T04:20:31;8.60;99.90
31747;DHT22;18319;48.974;8.462;2023-04-25T04:22:58;8.60;99.90
31747;DHT22;18319;48.974;8.462;2023-04-25T04:25:25;8.60;99.90
31747;DHT22;18319;48.974;8.462;2023-04-25T04:27:51;8.60;99.90
31747;DHT22;18319;48.974;8.462;2023-04-25T04:30:21;8.60;99.90
31747;DHT22;18319;48.974;8.462;2023-04-25T04:32:49;8.60;99.90
31747;DHT22;18319;48.974;8.462;2023-04-25T04:35:16;8.60;99.90
31747;DHT22;18319;48.974;8.462;2023-04-25T04:37:43;8.60;99.90
31747;DHT22;18319;48.974;8.462;2023-04-25T04:40:11;8.60;99.90
31747;DHT22;18319;48.974;8.462;2023-04-25T04:42:40;8.70;99.90
31747;DHT22;18319;48.974;8.462;2023-04-25T04:45:08;8.60;99.90
31747;DHT22;18319;48.974;8.462;2023-04-25T04:47:37;8.60;99.90
31747;DHT22;18319;48.974;8.462;2023-04-25T04:50:05;8.60;99.90
31747;DHT22;18319;48.974;8.462;2023-04-25T04:52:34;8.70;99.90
31747;DHT22;18319;48.974;8.462;2023-04-25T04:55:00;8.70;99.90
31747;DHT22;18319;48.974;8.462;2023-04-25T04:57:27;8.70;99.90
31747;DHT22;18319;48.974;8.462;2023-04-25T04:59:54;8.70;99.90
31747;DHT22;18319;48.974;8.462;2023-04-25T05:02:21;8.80;99.90
31747;DHT22;18319;48.974;8.462;2023-04-25T05:04:49;8.90;99.90
31747;DHT22;18319;48.974;8.462;2023-04-25T05:07:18;8.90;99.90
31747;DHT22;18319;48.974;8.462;2023-04-25T05:09:45;9.00;99.90
31747;DHT22;18319;48.974;8.462;2023-04-25T05:12:12;9.00;99.90
31747;DHT22;18319;48.974;8.462;2023-04-25T05:14:39;9.00;99.90
31747;DHT22;18319;48.974;8.462;2023-04-25T05:17:08;9.00;99.90
31747;DHT22;18319;48.974;8.462;2023-04-25T05:19:35;9.10;99.90
31747;DHT22;18319;48.974;8.462;2023-04-25T05:22:03;9.10;99.90
31747;DHT22;18319;48.974;8.462;2023-04-25T05:24:30;9.20;99.90
31747;DHT22;18319;48.974;8.462;2023-04-25T05:26:57;9.20;99.90
31747;DHT22;18319;48.974;8.462;2023-04-25T05:29:24;9.30;99.90
31747;DHT22;18319;48.974;8.462;2023-04-25T05:31:50;9.30;99.90
31747;DHT22;18319;48.974;8.462;2023-04-25T05:34:18;9.30;99.90
31747;DHT22;18319;48.974;8.462;2023-04-25T05:36:45;9.40;99.90
31747;DHT22;18319;48.974;8.462;2023-04-25T05:39:15;9.40;99.90
31747;DHT22;18319;48.974;8.462;2023-04-25T05:41:42;9.50;99.90
31747;DHT22;18319;48.974;8.462;2023-04-25T05:44:08;9.60;99.90
31747;DHT22;18319;48.974;8.462;2023-04-25T05:46:35;9.70;99.90
31747;DHT22;18319;48.974;8.462;2023-04-25T05:49:02;10.00;99.90
31747;DHT22;18319;48.974;8.462;2023-04-25T05:51:29;10.20;99.90
31747;DHT22;18319;48.974;8.462;2023-04-25T05:53:56;10.40;99.90
31747;DHT22;18319;48.974;8.462;2023-04-25T05:56:25;10.50;99.90
31747;DHT22;18319;48.974;8.462;2023-04-25T05:58:52;10.50;99.90
31747;DHT22;18319;48.974;8.462;2023-04-25T06:01:18;10.50;99.90
31747;DHT22;18319;48.974;8.462;2023-04-25T06:03:46;10.50;99.90
31747;DHT22;18319;48.974;8.462;2023-04-25T06:06:12;10.50;99.90
31747;DHT22;18319;48.974;8.462;2023-04-25T06:08:40;10.40;99.90
31747;DHT22;18319;48.974;8.462;2023-04-25T06:11:06;10.40;99.90
31747;DHT22;18319;48.974;8.462;2023-04-25T06:13:35;10.40;99.90
31747;DHT22;18319;48.974;8.462;2023-04-25T06:16:01;10.30;99.90
31747;DHT22;18319;48.974;8.462;2023-04-25T06:18:28;10.30;99.90
31747;DHT22;18319;48.974;8.462;2023-04-25T06:20:55;10.30;99.90
31747;DHT22;18319;48.974;8.462;2023-04-25T06:23:22;10.30;99.90
31747;DHT22;18319;48.974;8.462;2023-04-25T06:25:49;10.30;99.90
31747;DHT22;18319;48.974;8.462;2023-04-25T06:28:16;10.20;99.90
31747;DHT22;18319;48.974;8.462;2023-04-25T06:30:44;10.20;99.90
31747;DHT22;18319;48.974;8.462;2023-04-25T06:33:10;10.20;99.90
31747;DHT22;18319;48.974;8.462;2023-04-25T06:35:37;10.10;99.90
31747;DHT22;18319;48.974;8.462;2023-04-25T06:38:04;10.10;99.90
31747;DHT22;18319;48.974;8.462;2023-04-25T06:40:31;10.00;99.90
31747;DHT22;18319;48.974;8.462;2023-04-25T06:42:58;9.90;99.90
31747;DHT22;18319;48.974;8.462;2023-04-25T06:45:25;9.80;99.90
31747;DHT22;18319;48.974;8.462;2023-04-25T06:47:53;9.80;99.90
31747;DHT22;18319;48.974;8.462;2023-04-25T06:50:19;9.70;99.90
31747;DHT22;18319;48.974;8.462;2023-04-25T06:52:46;9.70;99.90
31747;DHT22;18319;48.974;8.462;2023-04-25T06:55:13;9.60;99.90
31747;DHT22;18319;48.974;8.462;2023-04-25T06:57:40;9.60;99.90
31747;DHT22;18319;48.974;8.462;2023-04-25T07:00:08;9.60;99.90
31747;DHT22;18319;48.974;8.462;2023-04-25T07:02:35;9.70;99.90
31747;DHT22;18319;48.974;8.462;2023-04-25T07:05:03;9.80;99.90
31747;DHT22;18319;48.974;8.462;2023-04-25T07:07:30;9.90;99.90
31747;DHT22;18319;48.974;8.462;2023-04-25T07:09:57;9.90;99.90
31747;DHT22;18319;48.974;8.462;2023-04-25T07:12:24;10.00;99.90
31747;DHT22;18319;48.974;8.462;2023-04-25T07:14:51;10.00;99.90
31747;DHT22;18319;48.974;8.462;2023-04-25T07:17:17;10.10;99.90
31747;DHT22;18319;48.974;8.462;2023-04-25T07:19:44;10.10;99.90
31747;DHT22;18319;48.974;8.462;2023-04-25T07:22:12;10.10;99.90
31747;DHT22;18319;48.974;8.462;2023-04-25T07:24:39;10.20;99.90
31747;DHT22;18319;48.974;8.462;2023-04-25T07:27:06;10.20;99.90
31747;DHT22;18319;48.974;8.462;2023-04-25T07:29:33;10.20;99.90
31747;DHT22;18319;48.974;8.462;2023-04-25T07:32:02;10.20;99.90
31747;DHT22;18319;48.974;8.462;2023-04-25T07:34:29;10.20;99.90
31747;DHT22;18319;48.974;8.462;2023-04-25T07:36:57;10.20;99.90
31747;DHT22;18319;48.974;8.462;2023-04-25T07:39:26;10.20;99.90
31747;DHT22;18319;48.974;8.462;2023-04-25T07:41:52;10.20;99.90
31747;DHT22;18319;48.974;8.462;2023-04-25T07:44:20;10.20;99.90
31747;DHT22;18319;48.974;8.462;2023-04-25T07:46:47;10.20;99.90
31747;DHT22;18319;48.974;8.462;2023-04-25T07:49:13;10.10;99.90
31747;DHT22;18319;48.974;8.462;2023-04-25T07:51:40;10.20;99.90
31747;DHT22;18319;48.974;8.462;2023-04-25T07:54:08;10.10;99.90
31747;DHT22;18319;48.974;8.462;2023-04-25T07:56:36;10.10;99.90
31747;DHT22;18319;48.974;8.462;2023-04-25T07:59:03;10.10;99.90
31747;DHT22;18319;48.974;8.462;2023-04-25T08:01:30;10.20;99.90
31747;DHT22;18319;48.974;8.462;2023-04-25T08:03:57;10.10;99.90
31747;DHT22;18319;48.974;8.462;2023-04-25T08:06:24;10.20;99.90
31747;DHT22;18319;48.974;8.462;2023-04-25T08:08:51;10.20;99.90
31747;DHT22;18319;48.974;8.462;2023-04-25T08:11:17;10.20;99.90
31747;DHT22;18319;48.974;8.462;2023-04-25T08:13:45;10.20;99.90
31747;DHT22;18319;48.974;8.462;2023-04-25T08:16:12;10.20;99.90
31747;DHT22;18319;48.974;8.462;2023-04-25T08:18:39;10.10;99.90
31747;DHT22;18319;48.974;8.462;2023-04-25T08:21:06;10.00;99.90
31747;DHT22;18319;48.974;8.462;2023-04-25T08:23:34;9.90;99.90
31747;DHT22;18319;48.974;8.462;2023-04-25T08:26:01;9.80;99.90
31747;DHT22;18319;48.974;8.462;2023-04-25T08:28:28;9.80;99.90
31747;DHT22;18319;48.974;8.462;2023-04-25T08:30:56;9.80;99.90
31747;DHT22;18319;48.974;8.462;2023-04-25T08:33:23;9.80;99.90
31747;DHT22;18319;48.974;8.462;2023-04-25T08:35:50;9.90;99.90
31747;DHT22;18319;48.974;8.462;2023-04-25T08:38:17;10.00;99.90
31747;DHT22;18319;48.974;8.462;2023-04-25T08:40:49;10.10;99.90
31747;DHT22;18319;48.974;8.462;2023-04-25T08:43:19;10.20;99.90
31747;DHT22;18319;48.974;8.462;2023-04-25T08:45:47;10.30;99.90
31747;DHT22;18319;48.974;8.462;2023-04-25T08:48:16;10.30;99.90
31747;DHT22;18319;48.974;8.462;2023-04-25T08:50:45;10.30;99.90
31747;DHT22;18319;48.974;8.462;2023-04-25T08:53:16;10.40;99.90
31747;DHT22;18319;48.974;8.462;2023-04-25T08:55:45;10.60;99.90
31747;DHT22;18319;48.974;8.462;2023-04-25T08:58:13;10.70;99.90
31747;DHT22;18319;48.974;8.462;2023-04-25T09:00:40;10.70;99.90
31747;DHT22;18319;48.974;8.462;2023-04-25T09:03:06;10.80;99.90
31747;DHT22;18319;48.974;8.462;2023-04-25T09:05:35;10.90;99.90
31747;DHT22;18319;48.974;8.462;2023-04-25T09:08:02;11.10;99.90
31747;DHT22;18319;48.974;8.462;2023-04-25T09:10:29;11.20;99.90
31747;DHT22;18319;48.974;8.462;2023-04-25T09:13:03;11.20;99.90
31747;DHT22;18319;48.974;8.462;2023-04-25T09:15:31;11.20;99.90
31747;DHT22;18319;48.974;8.462;2023-04-25T09:17:59;11.10;99.90
31747;DHT22;18319;48.974;8.462;2023-04-25T09:20:26;10.90;99.90
31747;DHT22;18319;48.974;8.462;2023-04-25T09:23:05;11.10;99.90
31747;DHT22;18319;48.974;8.462;2023-04-25T09:25:36;11.10;99.90
31747;DHT22;18319;48.974;8.462;2023-04-25T09:28:05;10.90;99.90
31747;DHT22;18319;48.974;8.462;2023-04-25T09:30:33;10.80;99.90
31747;DHT22;18319;48.974;8.462;2023-04-25T09:33:04;10.70;99.90
31747;DHT22;18319;48.974;8.462;2023-04-25T09:35:35;10.70;99.90
31747;DHT22;18319;48.974;8.462;2023-04-25T09:38:09;10.80;99.90
31747;DHT22;18319;48.974;8.462;2023-04-25T09:40:41;10.80;99.90
31747;DHT22;18319;48.974;8.462;2023-04-25T09:43:14;10.70;99.90
31747;DHT22;18319;48.974;8.462;2023-04-25T09:45:42;10.70;99.90
31747;DHT22;18319;48.974;8.462;2023-04-25T09:48:11;10.60;99.90
31747;DHT22;18319;48.974;8.462;2023-04-25T09:50:38;10.40;99.90
31747;DHT22;18319;48.974;8.462;2023-04-25T09:53:05;10.30;99.90
31747;DHT22;18319;48.974;8.462;2023-04-25T09:55:34;10.10;99.90
31747;DHT22;18319;48.974;8.462;2023-04-25T09:58:04;9.90;99.90
31747;DHT22;18319;48.974;8.462;2023-04-25T10:00:32;9.70;99.90
31747;DHT22;18319;48.974;8.462;2023-04-25T10:03:01;9.50;99.90
31747;DHT22;18319;48.974;8.462;2023-04-25T10:05:30;9.30;99.90
31747;DHT22;18319;48.974;8.462;2023-04-25T10:08:00;9.20;99.90
31747;DHT22;18319;48.974;8.462;2023-04-25T10:10:30;9.20;99.90
31747;DHT22;18319;48.974;8.462;2023-04-25T10:13:05;9.20;99.90
31747;DHT22;18319;48.974;8.462;2023-04-25T10:15:35;9.20;99.90
31747;DHT22;18319;48.974;8.462;2023-04-25T10:18:03;9.30;99.90
31747;DHT22;18319;48.974;8.462;2023-04-25T10:20:30;9.30;99.90
31747;DHT22;18319;48.974;8.462;2023-04-25T10:23:06;9.30;99.90
31747;DHT22;18319;48.974;8.462;2023-04-25T10:25:33;9.40;99.90
31747;DHT22;18319;48.974;8.462;2023-04-25T10:28:02;9.60;99.90
31747;DHT22;18319;48.974;8.462;2023-04-25T10:30:29;9.70;99.90
31747;DHT22;18319;48.974;8.462;2023-04-25T10:32:56;9.90;99.90
31747;DHT22;18319;48.974;8.462;2023-04-25T10:35:26;10.10;99.90
31747;DHT22;18319;48.974;8.462;2023-04-25T10:37:57;10.20;99.90
31747;DHT22;18319;48.974;8.462;2023-04-25T10:40:25;10.30;99.90
31747;DHT22;18319;48.974;8.462;2023-04-25T10:42:52;10.40;99.90
31747;DHT22;18319;48.974;8.462;2023-04-25T10:45:20;10.50;99.90
31747;DHT22;18319;48.974;8.462;2023-04-25T10:47:47;10.80;99.90
31747;DHT22;18319;48.974;8.462;2023-04-25T10:50:15;11.00;99.90
31747;DHT22;18319;48.974;8.462;2023-04-25T10:52:42;11.10;99.90
31747;DHT22;18319;48.974;8.462;2023-04-25T10:55:09;11.20;99.90
31747;DHT22;18319;48.974;8.462;2023-04-25T11:00:10;11.10;99.90
31747;DHT22;18319;48.974;8.462;2023-04-25T11:02:41;11.10;99.90
31747;DHT22;18319;48.974;8.462;2023-04-25T11:05:08;11.00;99.90
31747;DHT22;18319;48.974;8.462;2023-04-25T11:07:38;11.10;99.90
31747;DHT22;18319;48.974;8.462;2023-04-25T11:10:06;11.10;99.90
31747;DHT22;18319;48.974;8.462;2023-04-25T11:12:33;11.20;99.90
31747;DHT22;18319;48.974;8.462;2023-04-25T11:15:01;11.20;99.90
31747;DHT22;18319;48.974;8.462;2023-04-25T11:17:29;11.30;99.90
31747;DHT22;18319;48.974;8.462;2023-04-25T11:19:57;11.60;99.90
31747;DHT22;18319;48.974;8.462;2023-04-25T11:22:26;11.60;99.90
31747;DHT22;18319;48.974;8.462;2023-04-25T11:24:53;11.40;99.90
31747;DHT22;18319;48.974;8.462;2023-04-25T11:27:20;11.30;99.90
31747;DHT22;18319;48.974;8.462;2023-04-25T11:29:50;11.10;99.90
31747;DHT22;18319;48.974;8.462;2023-04-25T11:32:17;11.00;99.90
31747;DHT22;18319;48.974;8.462;2023-04-25T11:34:44;10.90;99.90
31747;DHT22;18319;48.974;8.462;2023-04-25T11:37:14;10.80;99.90
31747;DHT22;18319;48.974;8.462;2023-04-25T11:39:44;10.80;99.90
31747;DHT22;18319;48.974;8.462;2023-04-25T11:42:12;10.80;99.90
31747;DHT22;18319;48.974;8.462;2023-04-25T11:44:39;10.70;99.90
31747;DHT22;18319;48.974;8.462;2023-04-25T11:47:06;10.60;99.90
31747;DHT22;18319;48.974;8.462;2023-04-25T11:49:33;10.40;99.90
31747;DHT22;18319;48.974;8.462;2023-04-25T11:52:01;10.30;99.90
31747;DHT22;18319;48.974;8.462;2023-04-25T11:54:29;10.30;99.90
31747;DHT22;18319;48.974;8.462;2023-04-25T11:56:56;10.30;99.90
31747;DHT22;18319;48.974;8.462;2023-04-25T11:59:24;10.40;99.90
31747;DHT22;18319;48.974;8.462;2023-04-25T12:01:51;10.50;99.90
31747;DHT22;18319;48.974;8.462;2023-04-25T12:04:21;10.50;99.90
31747;DHT22;18319;48.974;8.462;2023-04-25T12:06:49;10.60;99.90
31747;DHT22;18319;48.974;8.462;2023-04-25T12:09:17;10.70;99.90
31747;DHT22;18319;48.974;8.462;2023-04-25T12:11:52;10.90;99.90
31747;DHT22;18319;48.974;8.462;2023-04-25T12:14:23;10.80;99.90
31747;DHT22;18319;48.974;8.462;2023-04-25T12:16:54;10.60;99.90
31747;DHT22;18319;48.974;8.462;2023-04-25T12:19:22;10.80;99.90
31747;DHT22;18319;48.974;8.462;2023-04-25T12:21:50;10.80;99.90
31747;DHT22;18319;48.974;8.462;2023-04-25T12:24:18;10.90;99.90
31747;DHT22;18319;48.974;8.462;2023-04-25T12:26:52;10.90;99.90
31747;DHT22;18319;48.974;8.462;2023-04-25T12:29:23;11.10;99.90
31747;DHT22;18319;48.974;8.462;2023-04-25T12:31:51;11.20;99.90
31747;DHT22;18319;48.974;8.462;2023-04-25T12:34:18;11.40;99.90
31747;DHT22;18319;48.974;8.462;2023-04-25T12:36:45;11.60;99.90
31747;DHT22;18319;48.974;8.462;2023-04-25T12:39:16;11.90;99.90
31747;DHT22;18319;48.974;8.462;2023-04-25T12:41:43;12.10;99.90
31747;DHT22;18319;48.974;8.462;2023-04-25T12:44:13;12.30;99.90
31747;DHT22;18319;48.974;8.462;2023-04-25T12:46:40;12.50;99.90
31747;DHT22;18319;48.974;8.462;2023-04-25T12:49:07;12.80;99.90
31747;DHT22;18319;48.974;8.462;2023-04-25T12:51:34;13.00;99.90
31747;DHT22;18319;48.974;8.462;2023-04-25T12:54:03;12.90;99.90
31747;DHT22;18319;48.974;8.462;2023-04-25T12:56:30;12.90;99.90
31747;DHT22;18319;48.974;8.462;2023-04-25T12:58:57;12.80;99.90
31747;DHT22;18319;48.974;8.462;2023-04-25T13:01:26;12.70;99.90
31747;DHT22;18319;48.974;8.462;2023-04-25T13:03:53;12.70;99.90
31747;DHT22;18319;48.974;8.462;2023-04-25T13:06:20;12.60;99.90
31747;DHT22;18319;48.974;8.462;2023-04-25T13:08:47;12.60;99.90
31747;DHT22;18319;48.974;8.462;2023-04-25T13:11:14;12.60;99.90
31747;DHT22;18319;48.974;8.462;2023-04-25T13:13:41;12.60;99.90
31747;DHT22;18319;48.974;8.462;2023-04-25T13:16:08;12.70;99.90
31747;DHT22;18319;48.974;8.462;2023-04-25T13:18:37;12.90;99.90
31747;DHT22;18319;48.974;8.462;2023-04-25T13:21:03;12.90;99.90
31747;DHT22;18319;48.974;8.462;2023-04-25T13:23:30;12.90;99.90
31747;DHT22;18319;48.974;8.462;2023-04-25T13:25:57;13.00;99.90
31747;DHT22;18319;48.974;8.462;2023-04-25T13:28:25;13.10;99.90
31747;DHT22;18319;48.974;8.462;2023-04-25T13:30:51;13.20;99.90
31747;DHT22;18319;48.974;8.462;2023-04-25T13:33:19;13.30;99.90
31747;DHT22;18319;48.974;8.462;2023-04-25T13:35:48;13.40;99.90
31747;DHT22;18319;48.974;8.462;2023-04-25T13:38:20;13.40;99.90
31747;DHT22;18319;48.974;8.462;2023-04-25T13:40:47;13.50;99.90
31747;DHT22;18319;48.974;8.462;2023-04-25T13:43:15;13.50;99.90
31747;DHT22;18319;48.974;8.462;2023-04-25T13:45:41;13.30;99.90
31747;DHT22;18319;48.974;8.462;2023-04-25T13:48:08;13.30;99.90
31747;DHT22;18319;48.974;8.462;2023-04-25T13:50:35;13.30;99.90
31747;DHT22;18319;48.974;8.462;2023-04-25T13:53:03;13.30;99.90
31747;DHT22;18319;48.974;8.462;2023-04-25T13:55:30;13.20;99.90
31747;DHT22;18319;48.974;8.462;2023-04-25T13:57:57;13.30;99.90
31747;DHT22;18319;48.974;8.462;2023-04-25T14:00:24;13.30;99.90
31747;DHT22;18319;48.974;8.462;2023-04-25T14:02:51;13.20;99.90
31747;DHT22;18319;48.974;8.462;2023-04-25T14:05:19;13.10;99.90
31747;DHT22;18319;48.974;8.462;2023-04-25T14:07:45;13.00;99.90
31747;DHT22;18319;48.974;8.462;2023-04-25T14:10:13;12.90;99.90
31747;DHT22;18319;48.974;8.462;2023-04-25T14:12:41;12.80;99.90
31747;DHT22;18319;48.974;8.462;2023-04-25T14:15:08;12.90;99.90
31747;DHT22;18319;48.974;8.462;2023-04-25T14:17:35;13.00;99.90
31747;DHT22;18319;48.974;8.462;2023-04-25T14:20:01;13.10;99.90
31747;DHT22;18319;48.974;8.462;2023-04-25T14:22:31;13.20;99.90
31747;DHT22;18319;48.974;8.462;2023-04-25T14:24:58;13.40;99.90
31747;DHT22;18319;48.974;8.462;2023-04-25T14:27:26;13.40;99.90
31747;DHT22;18319;48.974;8.462;2023-04-25T14:29:53;13.50;99.90
31747;DHT22;18319;48.974;8.462;2023-04-25T14:32:20;13.50;99.90
31747;DHT22;18319;48.974;8.462;2023-04-25T14:34:47;13.70;99.90
31747;DHT22;18319;48.974;8.462;2023-04-25T14:37:15;13.90;99.90
31747;DHT22;18319;48.974;8.462;2023-04-25T14:39:41;13.90;99.90
31747;DHT22;18319;48.974;8.462;2023-04-25T14:42:08;13.90;99.90
31747;DHT22;18319;48.974;8.462;2023-04-25T14:44:38;13.90;99.90
31747;DHT22;18319;48.974;8.462;2023-04-25T14:47:05;13.80;99.90
31747;DHT22;18319;48.974;8.462;2023-04-25T14:49:32;13.70;99.90
31747;DHT22;18319;48.974;8.462;2023-04-25T14:51:58;13.60;99.90
31747;DHT22;18319;48.974;8.462;2023-04-25T14:54:26;13.50;99.90
31747;DHT22;18319;48.974;8.462;2023-04-25T14:56:53;13.40;99.90
31747;DHT22;18319;48.974;8.462;2023-04-25T14:59:20;13.30;99.90
31747;DHT22;18319;48.974;8.462;2023-04-25T15:01:49;13.30;99.90
31747;DHT22;18319;48.974;8.462;2023-04-25T15:04:16;13.30;99.90
31747;DHT22;18319;48.974;8.462;2023-04-25T15:06:43;13.30;99.90
31747;DHT22;18319;48.974;8.462;2023-04-25T15:09:10;13.30;99.90
31747;DHT22;18319;48.974;8.462;2023-04-25T15:11:37;13.40;99.90
31747;DHT22;18319;48.974;8.462;2023-04-25T15:14:04;13.50;99.90
31747;DHT22;18319;48.974;8.462;2023-04-25T15:16:31;13.50;99.90
31747;DHT22;18319;48.974;8.462;2023-04-25T15:18:59;13.50;99.90
31747;DHT22;18319;48.974;8.462;2023-04-25T15:21:29;13.50;99.90
31747;DHT22;18319;48.974;8.462;2023-04-25T15:23:56;13.50;99.90
31747;DHT22;18319;48.974;8.462;2023-04-25T15:26:23;13.50;99.90
31747;DHT22;18319;48.974;8.462;2023-04-25T15:28:50;13.40;99.90
31747;DHT22;18319;48.974;8.462;2023-04-25T15:31:18;13.30;99.90
31747;DHT22;18319;48.974;8.462;2023-04-25T15:33:45;13.20;99.90
31747;DHT22;18319;48.974;8.462;2023-04-25T15:36:13;13.10;99.90
31747;DHT22;18319;48.974;8.462;2023-04-25T15:38:41;13.10;99.90
31747;DHT22;18319;48.974;8.462;2023-04-25T15:41:08;13.20;99.90